Time;durP1;ratioP1;P1;durP2;ratioP2;P2;SDS_P1;SDS_P2;PMS_P1;PMS_P2;Temp;Humidity;BMP_temperature;BMP_pressure;BME280_temperature;BME280_humidity;BME280_pressure;Samples;Min_cycle;Max_cycle;Signal;HPM_P1;HPM_P2
2023/04/01 00:01:31;;;;;;;3.72;2.17;;;12.60;99.90;;;;;;5014256;28;20057;-73
2023/04/01 00:03:56;;;;;;;3.63;2.35;;;12.60;99.90;;;;;;5013052;28;20034;-74
2023/04/01 00:06:23;;;;;;;3.42;2.00;;;12.60;99.90;;;;;;5023338;28;20484;-73
2023/04/01 00:08:49;;;;;;;6.63;2.65;;;12.60;99.90;;;;;;5024817;28;20017;-74
2023/04/01 00:11:15;;;;;;;3.90;2.50;;;12.60;99.90;;;;;;5020641;28;20478;-71
2023/04/01 00:13:41;;;;;;;3.45;2.30;;;12.60;99.90;;;;;;5029590;28;20052;-71
2023/04/01 00:16:07;;;;;;;5.05;2.50;;;12.50;99.90;;;;;;5028853;28;20127;-71
2023/04/01 00:18:33;;;;;;;3.70;2.40;;;12.50;99.90;;;;;;5047762;28;20056;-71
2023/04/01 00:20:59;;;;;;;4.07;2.05;;;12.50;99.90;;;;;;5024538;28;20044;-71
2023/04/01 00:23:26;;;;;;;5.00;2.78;;;12.50;99.90;;;;;;5021808;28;20045;-70
2023/04/01 00:25:51;;;;;;;3.38;2.45;;;12.50;99.90;;;;;;5014457;28;20029;-71
2023/04/01 00:28:18;;;;;;;3.50;2.15;;;12.40;99.90;;;;;;5019023;28;20466;-71
2023/04/01 00:30:44;;;;;;;3.25;2.20;;;12.50;99.90;;;;;;5019295;28;20032;-71
2023/04/01 00:33:10;;;;;;;6.15;2.50;;;12.50;99.90;;;;;;5033079;28;20018;-71
2023/04/01 00:35:36;;;;;;;4.05;2.30;;;12.50;99.90;;;;;;5028370;28;20032;-71
2023/04/01 00:38:03;;;;;;;3.47;2.33;;;12.50;99.90;;;;;;5040203;28;20071;-70
2023/04/01 00:40:29;;;;;;;3.28;2.30;;;12.50;99.90;;;;;;5022607;28;20030;-71
2023/04/01 00:42:55;;;;;;;3.17;2.33;;;12.50;99.90;;;;;;5016812;28;20429;-71
2023/04/01 00:45:34;;;;;;;3.30;2.33;;;12.50;99.90;;;;;;5037300;28;20038;-70
2023/04/01 00:48:23;;;;;;;3.30;2.30;;;12.50;99.90;;;;;;5013107;28;20025;-70
2023/04/01 00:50:54;;;;;;;4.32;2.40;;;12.50;99.90;;;;;;5011756;28;20438;-70
2023/04/01 00:53:20;;;;;;;3.78;2.38;;;12.50;99.90;;;;;;5017272;28;20471;-70
2023/04/01 00:56:02;;;;;;;4.43;2.72;;;12.60;99.90;;;;;;5017096;28;20029;-71
2023/04/01 00:58:33;;;;;;;5.65;2.55;;;12.60;99.90;;;;;;5029210;28;20088;-71
2023/04/01 01:00:59;;;;;;;3.85;2.65;;;12.60;99.90;;;;;;5020889;28;20052;-71
2023/04/01 01:03:25;;;;;;;4.95;2.80;;;12.60;99.90;;;;;;5026749;28;20033;-71
2023/04/01 01:06:12;;;;;;;5.72;2.70;;;12.60;99.90;;;;;;5016836;28;20049;-71
2023/04/01 01:08:59;;;;;;;4.38;2.40;;;12.60;99.90;;;;;;5035632;28;20484;-72
2023/04/01 01:11:48;;;;;;;3.97;2.17;;;12.60;99.90;;;;;;5017542;28;20236;-73
2023/04/01 01:14:34;;;;;;;3.00;2.03;;;12.60;99.90;;;;;;5024434;28;20068;-73
2023/04/01 01:17:30;;;;;;;5.38;2.40;;;12.60;99.90;;;;;;5029271;28;20029;-73
2023/04/01 01:20:41;;;;;;;4.22;2.50;;;12.60;99.90;;;;;;5019665;28;20025;-73
2023/04/01 01:23:29;;;;;;;3.78;2.75;;;12.60;99.90;;;;;;5030535;28;20029;-73
2023/04/01 01:25:57;;;;;;;3.90;2.55;;;12.60;99.90;;;;;;5032248;28;20113;-73
2023/04/01 01:28:55;;;;;;;4.05;2.42;;;12.60;99.90;;;;;;5012130;28;20129;-73
2023/04/01 01:31:29;;;;;;;4.68;2.70;;;12.60;99.90;;;;;;5012671;28;20022;-73
2023/04/01 01:34:11;;;;;;;3.72;2.22;;;12.60;99.90;;;;;;5037270;28;20084;-73
2023/04/01 01:36:40;;;;;;;4.90;2.40;;;12.70;99.90;;;;;;5011581;28;20091;-73
2023/04/01 01:39:08;;;;;;;4.88;2.72;;;12.70;99.90;;;;;;5023593;28;20045;-73
2023/04/01 01:41:49;;;;;;;4.32;2.33;;;12.60;99.90;;;;;;5018389;28;20021;-73
2023/04/01 01:44:16;;;;;;;3.90;2.33;;;12.60;99.90;;;;;;5034570;28;20539;-73
2023/04/01 01:46:44;;;;;;;4.65;2.63;;;12.60;99.90;;;;;;5017931;28;20021;-73
2023/04/01 01:49:12;;;;;;;4.47;2.35;;;12.60;99.90;;;;;;5037347;28;20512;-73
2023/04/01 01:51:39;;;;;;;3.00;2.05;;;12.60;99.90;;;;;;5021831;28;20025;-73
2023/04/01 01:54:05;;;;;;;4.18;2.38;;;12.60;99.90;;;;;;5016756;28;20077;-73
2023/04/01 01:56:32;;;;;;;4.55;2.53;;;12.60;99.90;;;;;;5011602;28;20057;-73
2023/04/01 01:59:06;;;;;;;4.45;2.75;;;12.60;99.90;;;;;;5011971;28;20033;-73
2023/04/01 02:01:37;;;;;;;3.67;2.60;;;12.60;99.90;;;;;;5025484;28;20596;-72
2023/04/01 02:04:04;;;;;;;3.38;2.20;;;12.60;99.90;;;;;;5027822;28;20040;-72
2023/04/01 02:06:34;;;;;;;3.60;1.95;;;12.60;99.90;;;;;;5014732;28;20064;-72
2023/04/01 02:09:04;;;;;;;3.33;1.95;;;12.60;99.90;;;;;;5015405;28;20473;-72
2023/04/01 02:11:39;;;;;;;6.57;2.60;;;12.60;99.90;;;;;;5022453;28;20127;-72
2023/04/01 02:14:10;;;;;;;4.65;2.20;;;12.60;99.90;;;;;;5024459;28;20493;-72
2023/04/01 02:17:00;;;;;;;3.92;2.28;;;12.60;99.90;;;;;;5011810;28;20040;-72
2023/04/01 02:19:33;;;;;;;4.90;2.72;;;12.60;99.90;;;;;;5034108;28;20072;-72
2023/04/01 02:22:04;;;;;;;6.20;2.40;;;12.60;99.90;;;;;;5013909;28;20021;-72
2023/04/01 02:24:33;;;;;;;3.95;2.20;;;12.60;99.90;;;;;;5026614;28;20046;-72
2023/04/01 02:26:59;;;;;;;4.80;2.10;;;12.60;99.90;;;;;;5014770;28;20079;-71
2023/04/01 02:29:25;;;;;;;2.90;2.10;;;12.60;99.90;;;;;;5023770;28;20112;-71
2023/04/01 02:31:52;;;;;;;3.47;1.95;;;12.50;99.90;;;;;;5012428;28;20030;-71
2023/04/01 02:34:19;;;;;;;4.88;2.20;;;12.60;99.90;;;;;;5040309;28;20018;-72
2023/04/01 02:36:46;;;;;;;5.35;2.58;;;12.60;99.90;;;;;;5011066;28;20025;-71
2023/04/01 02:39:13;;;;;;;3.72;2.22;;;12.60;99.90;;;;;;5036182;28;20116;-71
2023/04/01 02:41:41;;;;;;;3.90;2.10;;;12.50;99.90;;;;;;5015706;28;20022;-72
2023/04/01 02:44:07;;;;;;;4.68;2.70;;;12.60;99.90;;;;;;5038487;28;20404;-72
2023/04/01 02:46:32;;;;;;;3.78;2.08;;;12.60;99.90;;;;;;5020566;28;20116;-72
2023/04/01 02:48:58;;;;;;;3.38;2.30;;;12.60;99.90;;;;;;5040285;28;20112;-72
2023/04/01 02:51:25;;;;;;;5.13;2.75;;;12.60;99.90;;;;;;5019708;28;20021;-73
2023/04/01 02:53:50;;;;;;;4.05;2.10;;;12.60;99.90;;;;;;5012397;28;20385;-73
2023/04/01 02:56:16;;;;;;;5.55;2.45;;;12.60;99.90;;;;;;5011344;28;20116;-72
2023/04/01 02:58:42;;;;;;;3.72;2.20;;;12.60;99.90;;;;;;5023898;28;20422;-72
2023/04/01 03:01:08;;;;;;;3.92;2.25;;;12.60;99.90;;;;;;5022728;28;20030;-71
2023/04/01 03:03:33;;;;;;;5.13;2.72;;;12.60;99.90;;;;;;5023654;28;20025;-72
2023/04/01 03:06:08;;;;;;;4.32;2.80;;;12.50;99.90;;;;;;5013221;28;20042;-72
2023/04/01 03:08:33;;;;;;;4.75;2.95;;;12.50;99.90;;;;;;5014133;28;20034;-72
2023/04/01 03:10:59;;;;;;;5.03;2.92;;;12.50;99.90;;;;;;5011269;28;20040;-72
2023/04/01 03:13:25;;;;;;;4.75;2.60;;;12.50;99.90;;;;;;5023300;28;20108;-72
2023/04/01 03:15:51;;;;;;;5.35;2.78;;;12.40;99.90;;;;;;5023197;28;20029;-73
2023/04/01 03:18:17;;;;;;;7.05;2.63;;;12.40;99.90;;;;;;5042918;28;20544;-72
2023/04/01 03:20:42;;;;;;;5.53;2.83;;;12.50;99.90;;;;;;5020300;28;20084;-72
2023/04/01 03:23:08;;;;;;;4.30;2.28;;;12.50;99.90;;;;;;5016899;28;20037;-72
2023/04/01 03:25:34;;;;;;;4.47;2.72;;;12.40;99.90;;;;;;5019371;28;20440;-73
2023/04/01 03:28:00;;;;;;;4.45;2.15;;;12.50;99.90;;;;;;5024156;28;20037;-72
2023/04/01 03:30:26;;;;;;;4.32;2.42;;;12.50;99.90;;;;;;5017227;28;20464;-72
2023/04/01 03:32:52;;;;;;;5.25;2.90;;;12.50;99.90;;;;;;5024529;28;20393;-72
2023/04/01 03:35:18;;;;;;;5.82;3.10;;;12.50;99.90;;;;;;5030755;28;20033;-73
2023/04/01 03:37:44;;;;;;;4.88;2.50;;;12.50;99.90;;;;;;5017911;28;20469;-73
2023/04/01 03:40:10;;;;;;;4.22;2.65;;;12.50;99.90;;;;;;5027021;28;20533;-72
2023/04/01 03:42:36;;;;;;;3.72;2.25;;;12.50;99.90;;;;;;5043711;28;20078;-72
2023/04/01 03:45:03;;;;;;;4.70;3.15;;;12.50;99.90;;;;;;5026139;28;20489;-73
2023/04/01 03:47:29;;;;;;;4.05;2.35;;;12.40;99.90;;;;;;5028881;28;20032;-73
2023/04/01 03:49:55;;;;;;;3.70;2.33;;;12.40;99.90;;;;;;5020318;28;20124;-72
2023/04/01 03:52:21;;;;;;;6.13;2.97;;;12.50;99.90;;;;;;5024634;28;20113;-72
2023/04/01 03:54:46;;;;;;;5.05;2.67;;;12.50;99.90;;;;;;5029766;28;20060;-72
2023/04/01 03:57:12;;;;;;;5.32;2.83;;;12.50;99.90;;;;;;5025201;28;20029;-72
2023/04/01 03:59:38;;;;;;;5.40;3.00;;;12.50;99.90;;;;;;5031659;28;20146;-73
2023/04/01 04:02:04;;;;;;;6.00;2.42;;;12.50;99.90;;;;;;5033941;28;20064;-72
2023/04/01 04:04:30;;;;;;;5.30;3.05;;;12.50;99.90;;;;;;5021785;28;20341;-71
2023/04/01 04:06:56;;;;;;;5.78;2.80;;;12.40;99.90;;;;;;5026826;28;20030;-72
2023/04/01 04:09:22;;;;;;;7.72;3.28;;;12.50;99.90;;;;;;5014906;28;20389;-71
2023/04/01 04:11:49;;;;;;;5.20;2.60;;;12.40;99.90;;;;;;5029937;28;20037;-72
2023/04/01 04:14:14;;;;;;;5.25;2.67;;;12.40;99.90;;;;;;5023412;28;20449;-72
2023/04/01 04:16:40;;;;;;;4.45;2.70;;;12.40;99.90;;;;;;5032781;28;20112;-71
2023/04/01 04:19:05;;;;;;;5.20;3.08;;;12.40;99.90;;;;;;5025872;28;20022;-72
2023/04/01 04:21:31;;;;;;;6.43;3.28;;;12.40;99.90;;;;;;5029645;28;20112;-72
2023/04/01 04:23:59;;;;;;;5.90;3.08;;;12.40;99.90;;;;;;5030116;28;20094;-72
2023/04/01 04:26:25;;;;;;;8.15;3.22;;;12.40;99.90;;;;;;5025620;28;20043;-71
2023/04/01 04:28:51;;;;;;;6.25;3.28;;;12.50;99.90;;;;;;5017649;28;20069;-72
2023/04/01 04:31:21;;;;;;;4.93;2.72;;;12.50;99.90;;;;;;5023456;28;20080;-72
2023/04/01 04:33:47;;;;;;;5.07;3.22;;;12.50;99.90;;;;;;5024553;28;20124;-72
2023/04/01 04:36:13;;;;;;;6.95;3.17;;;12.50;99.90;;;;;;5017209;28;20049;-71
2023/04/01 04:38:39;;;;;;;5.53;2.58;;;12.50;99.90;;;;;;5023366;28;20049;-71
2023/04/01 04:41:12;;;;;;;5.05;3.42;;;12.50;99.90;;;;;;5028163;28;20045;-72
2023/04/01 04:43:39;;;;;;;6.30;3.03;;;12.40;99.90;;;;;;5024843;28;20071;-72
2023/04/01 04:46:09;;;;;;;5.78;2.92;;;12.50;99.90;;;;;;5024494;28;20087;-71
2023/04/01 04:48:35;;;;;;;4.82;2.92;;;12.50;99.90;;;;;;5016783;28;20038;-72
2023/04/01 04:51:01;;;;;;;6.65;2.85;;;12.50;99.90;;;;;;5015283;28;20034;-71
2023/04/01 04:53:27;;;;;;;4.43;3.05;;;12.50;99.90;;;;;;5026460;28;20025;-72
2023/04/01 04:55:52;;;;;;;4.45;2.90;;;12.50;99.90;;;;;;5016901;28;20616;-72
2023/04/01 04:58:18;;;;;;;6.18;3.22;;;12.50;99.90;;;;;;5015471;28;20026;-72
2023/04/01 05:00:45;;;;;;;5.38;2.83;;;12.60;99.90;;;;;;5015717;28;20402;-71
2023/04/01 05:03:11;;;;;;;5.95;3.10;;;12.60;99.90;;;;;;5035651;28;20052;-71
2023/04/01 05:05:37;;;;;;;5.05;2.85;;;12.50;99.90;;;;;;5019597;28;20034;-72
2023/04/01 05:08:03;;;;;;;5.30;3.15;;;12.60;99.90;;;;;;5028326;28;20053;-72
2023/04/01 05:10:29;;;;;;;5.35;3.15;;;12.60;99.90;;;;;;5028490;28;20111;-72
2023/04/01 05:12:54;;;;;;;5.75;2.75;;;12.60;99.90;;;;;;5024332;28;20303;-72
2023/04/01 05:15:20;;;;;;;5.43;3.20;;;12.60;99.90;;;;;;5020307;28;20549;-73
2023/04/01 05:17:46;;;;;;;4.85;3.03;;;12.60;99.90;;;;;;5032352;28;20034;-73
2023/04/01 05:20:13;;;;;;;6.22;2.95;;;12.70;99.90;;;;;;5029713;28;20048;-73
2023/04/01 05:22:39;;;;;;;5.50;3.60;;;12.70;99.90;;;;;;5034399;28;20103;-73
2023/04/01 05:25:05;;;;;;;5.65;2.85;;;12.70;99.90;;;;;;5016638;28;20530;-73
2023/04/01 05:27:31;;;;;;;6.90;3.00;;;12.70;99.90;;;;;;5011621;28;20033;-73
2023/04/01 05:29:57;;;;;;;5.47;3.40;;;12.70;99.90;;;;;;5018122;28;20193;-72
2023/04/01 05:32:23;;;;;;;6.13;2.85;;;12.70;99.90;;;;;;5027146;28;20129;-72
2023/04/01 05:34:51;;;;;;;4.88;2.75;;;12.70;99.90;;;;;;5024541;28;20033;-73
2023/04/01 05:37:17;;;;;;;6.35;3.05;;;12.80;99.90;;;;;;5022073;28;20485;-72
2023/04/01 05:39:42;;;;;;;6.15;3.70;;;12.70;99.90;;;;;;5016916;28;20038;-71
2023/04/01 05:42:08;;;;;;;4.55;2.63;;;12.70;99.90;;;;;;5031606;28;20029;-71
2023/04/01 05:44:35;;;;;;;5.93;3.10;;;12.80;99.90;;;;;;5020441;28;20370;-72
2023/04/01 05:47:01;;;;;;;5.22;2.90;;;12.70;99.90;;;;;;5031356;28;20042;-73
2023/04/01 05:49:27;;;;;;;5.22;3.47;;;12.70;99.90;;;;;;5018035;28;20026;-72
2023/04/01 05:51:52;;;;;;;4.97;2.60;;;12.70;99.90;;;;;;5019444;28;20516;-73
2023/04/01 05:54:18;;;;;;;8.30;3.75;;;12.70;99.90;;;;;;5012190;28;20056;-73
2023/04/01 05:56:44;;;;;;;6.07;3.30;;;12.80;99.90;;;;;;5021556;28;20516;-73
2023/04/01 05:59:11;;;;;;;4.47;3.00;;;12.70;99.90;;;;;;5027258;28;20042;-73
2023/04/01 06:01:36;;;;;;;6.93;3.63;;;12.80;99.90;;;;;;5015236;28;20489;-73
2023/04/01 06:04:02;;;;;;;4.38;2.55;;;12.70;99.90;;;;;;5012505;28;20026;-73
2023/04/01 06:06:29;;;;;;;6.80;3.17;;;12.80;99.90;;;;;;5029278;28;20452;-73
2023/04/01 06:08:57;;;;;;;6.35;3.22;;;12.70;99.90;;;;;;5036122;28;20103;-73
2023/04/01 06:11:37;;;;;;;7.35;3.60;;;12.80;99.90;;;;;;5029315;28;20062;-73
2023/04/01 06:14:46;;;;;;;4.50;2.83;;;12.70;99.90;;;;;;5024684;28;20099;-73
2023/04/01 06:17:32;;;;;;;7.68;3.00;;;12.80;99.90;;;;;;5047770;28;20047;-70
2023/04/01 06:20:17;;;;;;;6.25;3.40;;;12.80;99.90;;;;;;5018625;28;20045;-73
2023/04/01 06:22:45;;;;;;;6.03;3.30;;;12.80;99.90;;;;;;5014824;28;20112;-74
2023/04/01 06:25:32;;;;;;;4.55;2.97;;;12.80;99.90;;;;;;5023004;28;20070;-74
2023/04/01 06:28:29;;;;;;;4.93;2.70;;;12.80;99.90;;;;;;5020080;28;20108;-74
2023/04/01 06:31:35;;;;;;;6.15;2.85;;;12.80;99.90;;;;;;5012274;28;20499;-74
2023/04/01 06:34:19;;;;;;;4.60;2.88;;;12.80;99.90;;;;;;5026005;28;20175;-74
2023/04/01 06:37:22;;;;;;;4.20;2.90;;;12.80;99.90;;;;;;5023500;28;20026;-74
2023/04/01 06:40:20;;;;;;;6.10;3.00;;;12.80;99.90;;;;;;5038717;28;20033;-73
2023/04/01 06:43:01;;;;;;;6.53;2.85;;;12.90;99.90;;;;;;5019327;28;20041;-73
2023/04/01 06:45:33;;;;;;;5.28;2.88;;;12.90;99.90;;;;;;5034256;28;20438;-73
2023/04/01 06:48:12;;;;;;;5.68;2.90;;;12.90;99.90;;;;;;5011517;28;20032;-74
2023/04/01 06:50:56;;;;;;;4.30;2.80;;;12.80;99.90;;;;;;5021347;28;20363;-73
2023/04/01 06:53:43;;;;;;;5.68;3.05;;;12.90;99.90;;;;;;5020126;28;20022;-73
2023/04/01 06:56:13;;;;;;;7.72;3.60;;;12.80;99.90;;;;;;5014981;28;20116;-74
2023/04/01 06:58:52;;;;;;;5.38;2.97;;;12.90;99.90;;;;;;5011535;28;20490;-73
2023/04/01 07:01:27;;;;;;;6.28;3.75;;;12.90;99.90;;;;;;5031685;28;20044;-73
2023/04/01 07:04:05;;;;;;;5.93;3.42;;;12.90;99.90;;;;;;5044375;28;20033;-73
2023/04/01 07:07:00;;;;;;;8.13;3.90;;;12.90;99.90;;;;;;5040263;28;20034;-74
2023/04/01 07:09:35;;;;;;;4.90;3.45;;;12.90;99.90;;;;;;5022057;28;20046;-73
2023/04/01 07:12:10;;;;;;;4.85;3.33;;;12.90;99.90;;;;;;5026918;28;20045;-73
2023/04/01 07:14:39;;;;;;;7.45;3.40;;;13.00;99.90;;;;;;5015236;28;20030;-73
2023/04/01 07:17:14;;;;;;;7.40;3.80;;;13.00;99.90;;;;;;5025995;28;20517;-73
2023/04/01 07:19:58;;;;;;;6.97;3.67;;;13.00;99.90;;;;;;5023637;28;20040;-74
2023/04/01 07:22:43;;;;;;;5.32;3.05;;;13.00;99.90;;;;;;5035127;28;20503;-75
2023/04/01 07:25:22;;;;;;;4.82;3.05;;;13.10;99.90;;;;;;5033437;28;20076;-75
2023/04/01 07:27:48;;;;;;;7.20;3.30;;;13.10;99.90;;;;;;5028253;28;20048;-75
2023/04/01 07:30:20;;;;;;;7.03;3.42;;;13.10;99.90;;;;;;5023748;28;20025;-72
2023/04/01 07:33:13;;;;;;;4.65;3.13;;;13.20;99.90;;;;;;5023754;28;20029;-76
2023/04/01 07:35:51;;;;;;;7.30;3.88;;;13.20;99.90;;;;;;5021593;28;20076;-76
2023/04/01 07:38:25;;;;;;;8.55;3.65;;;13.30;99.90;;;;;;5023038;28;20390;-76
2023/04/01 07:41:18;;;;;;;5.78;3.67;;;13.30;99.90;;;;;;5025536;28;20026;-74
2023/04/01 07:43:55;;;;;;;6.25;3.35;;;13.30;99.90;;;;;;5025860;28;20184;-75
2023/04/01 07:46:30;;;;;;;4.88;3.30;;;13.30;99.90;;;;;;5033282;28;20034;-75
2023/04/01 07:49:23;;;;;;;5.95;3.42;;;13.40;99.90;;;;;;5020953;28;20380;-75
2023/04/01 07:52:16;;;;;;;6.68;4.15;;;13.40;99.90;;;;;;5014359;28;20043;-76
2023/04/01 07:54:41;;;;;;;6.47;3.40;;;13.40;99.90;;;;;;5025065;28;20033;-75
2023/04/01 07:57:14;;;;;;;6.38;3.50;;;13.50;99.90;;;;;;5016831;28;20366;-74
2023/04/01 07:59:50;;;;;;;5.53;3.17;;;13.50;99.90;;;;;;5020248;28;20081;-75
2023/04/01 08:02:32;;;;;;;5.97;3.65;;;13.50;99.90;;;;;;5022954;28;20075;-73
2023/04/01 08:05:22;;;;;;;7.93;4.03;;;13.50;99.90;;;;;;5044854;28;20060;-77
2023/04/01 08:08:09;;;;;;;6.75;3.55;;;13.50;99.90;;;;;;5023705;28;20421;-77
2023/04/01 08:11:10;;;;;;;6.05;3.67;;;13.50;99.90;;;;;;5015576;28;20096;-75
2023/04/01 08:14:03;;;;;;;5.75;3.83;;;13.40;99.90;;;;;;5023324;28;20441;-75
2023/04/01 08:16:34;;;;;;;7.60;3.92;;;13.50;99.90;;;;;;5027098;28;20032;-77
2023/04/01 08:19:40;;;;;;;7.32;4.55;;;13.50;99.90;;;;;;5014183;28;20030;-73
2023/04/01 08:22:17;;;;;;;15.43;4.97;;;13.50;99.90;;;;;;5025982;28;20033;-76
2023/04/01 08:24:45;;;;;;;6.32;4.40;;;13.60;99.90;;;;;;5016345;28;20054;-73
2023/04/01 08:27:27;;;;;;;7.53;4.18;;;13.60;99.90;;;;;;5014830;28;20489;-73
2023/04/01 08:30:03;;;;;;;7.45;3.60;;;13.60;99.90;;;;;;5020272;28;20505;-73
2023/04/01 08:32:37;;;;;;;3.63;2.20;;;13.50;99.90;;;;;;5019466;28;20037;-73
2023/04/01 08:35:27;;;;;;;3.40;2.45;;;13.30;99.90;;;;;;5014152;28;20025;-72
2023/04/01 08:37:56;;;;;;;4.80;3.30;;;13.10;99.90;;;;;;5030016;28;20381;-69
2023/04/01 08:40:46;;;;;;;5.93;3.97;;;12.80;99.90;;;;;;5017148;28;20018;-69
2023/04/01 08:43:29;;;;;;;6.07;3.65;;;12.60;99.90;;;;;;5022004;28;20080;-70
2023/04/01 08:46:26;;;;;;;6.07;4.03;;;12.50;99.90;;;;;;5014067;28;20387;-70
2023/04/01 08:49:00;;;;;;;6.10;4.82;;;12.40;99.90;;;;;;5021018;28;20029;-69
2023/04/01 08:51:44;;;;;;;7.13;5.18;;;12.30;99.90;;;;;;5016977;28;20029;-69
2023/04/01 08:54:19;;;;;;;7.07;4.57;;;12.10;99.90;;;;;;5031503;28;20107;-70
2023/04/01 08:57:03;;;;;;;7.38;4.78;;;11.90;99.90;;;;;;5028552;28;20574;-69
2023/04/01 09:00:15;;;;;;;8.73;5.95;;;11.90;99.90;;;;;;5019187;28;20037;-68
2023/04/01 09:03:13;;;;;;;6.57;4.70;;;11.90;99.90;;;;;;5025743;28;20608;-68
2023/04/01 09:06:15;;;;;;;6.95;4.88;;;11.80;99.90;;;;;;5028520;28;20499;-68
2023/04/01 09:09:19;;;;;;;6.95;5.10;;;11.80;99.90;;;;;;5027265;28;20061;-68
2023/04/01 09:12:02;;;;;;;8.77;6.05;;;11.80;99.90;;;;;;5018640;28;20354;-69
2023/04/01 09:14:40;;;;;;;8.18;5.80;;;11.80;99.90;;;;;;5020064;28;20029;-68
2023/04/01 09:17:23;;;;;;;6.53;5.10;;;11.80;99.90;;;;;;5041419;28;20033;-68
2023/04/01 09:20:18;;;;;;;7.55;6.13;;;11.80;99.90;;;;;;5018529;28;20117;-69
2023/04/01 09:23:05;;;;;;;7.07;4.88;;;11.80;99.90;;;;;;5013719;28;20029;-70
2023/04/01 09:25:37;;;;;;;7.88;5.88;;;11.80;99.90;;;;;;5023190;28;20033;-69
2023/04/01 09:28:24;;;;;;;7.53;5.88;;;11.60;99.90;;;;;;5038909;28;20123;-69
2023/04/01 09:31:38;;;;;;;6.22;4.65;;;11.50;99.90;;;;;;5023870;28;20147;-69
2023/04/01 09:34:15;;;;;;;6.90;5.50;;;11.50;99.90;;;;;;5046123;28;20045;-68
2023/04/01 09:36:46;;;;;;;9.43;7.03;;;11.50;99.90;;;;;;5029800;28;20046;-69
2023/04/01 09:39:42;;;;;;;9.95;7.28;;;11.40;99.90;;;;;;5026987;28;20529;-71
2023/04/01 09:42:42;;;;;;;8.80;7.00;;;11.40;99.90;;;;;;5013945;28;20095;-69
2023/04/01 09:45:27;;;;;;;9.68;6.60;;;11.30;99.90;;;;;;5023956;28;20537;-68
2023/04/01 09:48:16;;;;;;;12.80;9.77;;;11.20;99.90;;;;;;5020193;28;20544;-68
2023/04/01 09:51:21;;;;;;;14.93;10.73;;;11.20;99.90;;;;;;5026868;28;20507;-68
2023/04/01 09:53:58;;;;;;;11.35;7.72;;;11.10;99.90;;;;;;5019933;28;20422;-68
2023/04/01 09:56:42;;;;;;;10.57;7.30;;;11.10;99.90;;;;;;5013772;28;20037;-68
2023/04/01 09:59:11;;;;;;;11.23;8.63;;;11.10;99.90;;;;;;5021105;28;20048;-68
2023/04/01 10:01:56;;;;;;;9.25;7.05;;;11.10;99.90;;;;;;5027630;28;20026;-69
2023/04/01 10:05:00;;;;;;;9.45;7.15;;;11.10;99.90;;;;;;5025778;28;20041;-69
2023/04/01 10:07:47;;;;;;;8.27;6.13;;;11.10;99.90;;;;;;5020577;28;20041;-68
2023/04/01 10:10:31;;;;;;;8.20;6.07;;;11.00;99.90;;;;;;5020756;28;20032;-68
2023/04/01 10:13:20;;;;;;;9.57;6.77;;;11.00;99.90;;;;;;5014607;28;20029;-69
2023/04/01 10:16:23;;;;;;;8.23;6.63;;;10.90;99.90;;;;;;5026024;28;20286;-68
2023/04/01 10:19:15;;;;;;;9.98;7.88;;;10.90;99.90;;;;;;5036575;28;20037;-68
2023/04/01 10:22:16;;;;;;;9.40;7.40;;;10.90;99.90;;;;;;5020110;28;20497;-68
2023/04/01 10:24:53;;;;;;;11.93;8.32;;;10.90;99.90;;;;;;5026485;28;20120;-67
2023/04/01 10:27:37;;;;;;;10.45;8.65;;;10.80;99.90;;;;;;5019193;28;20021;-67
2023/04/01 10:30:34;;;;;;;12.30;9.32;;;10.80;99.90;;;;;;5011225;28;20030;-67
2023/04/01 10:33:23;;;;;;;11.00;8.90;;;10.70;99.90;;;;;;5020677;28;20033;-67
2023/04/01 10:35:52;;;;;;;11.70;9.43;;;10.70;99.90;;;;;;5024748;28;20029;-67
2023/04/01 10:38:58;;;;;;;11.30;8.85;;;10.70;99.90;;;;;;5022093;28;20021;-67
2023/04/01 10:42:02;;;;;;;10.40;7.97;;;10.70;99.90;;;;;;5024650;28;20102;-66
2023/04/01 10:45:13;;;;;;;9.93;7.60;;;10.60;99.90;;;;;;5015970;28;20494;-67
2023/04/01 10:47:57;;;;;;;8.63;7.35;;;10.50;99.90;;;;;;5012583;28;20111;-68
2023/04/01 10:50:47;;;;;;;10.38;7.68;;;10.50;99.90;;;;;;5011749;28;22158;-67
2023/04/01 10:53:15;;;;;;;10.30;8.00;;;10.40;99.90;;;;;;5020726;28;20037;-68
2023/04/01 10:55:55;;;;;;;8.52;7.18;;;10.40;99.90;;;;;;5014861;28;20095;-67
2023/04/01 10:58:53;;;;;;;8.20;6.85;;;10.40;99.90;;;;;;5034470;28;20167;-68
2023/04/01 11:01:42;;;;;;;7.57;5.82;;;10.40;99.90;;;;;;5016768;28;21191;-67
2023/04/01 11:04:45;;;;;;;6.18;5.38;;;10.30;99.90;;;;;;5048581;28;20056;-67
2023/04/01 11:07:48;;;;;;;7.75;5.60;;;10.40;99.90;;;;;;5016819;28;20442;-67
2023/04/01 11:10:56;;;;;;;4.68;3.47;;;10.40;99.90;;;;;;5022211;28;20033;-67
2023/04/01 11:13:50;;;;;;;5.63;4.68;;;10.30;99.90;;;;;;5024957;28;20635;-67
2023/04/01 11:16:34;;;;;;;6.23;4.67;;;10.30;99.90;;;;;;5019478;28;20381;-67
2023/04/01 11:19:30;;;;;;;5.75;4.55;;;10.20;99.90;;;;;;5021880;28;20061;-67
2023/04/01 11:22:27;;;;;;;5.43;4.10;;;10.20;99.90;;;;;;5032052;28;20059;-66
2023/04/01 11:25:11;;;;;;;4.63;3.58;;;10.20;99.90;;;;;;5030374;28;20212;-67
2023/04/01 11:28:10;;;;;;;4.97;3.55;;;10.10;99.90;;;;;;5024022;28;20025;-67
2023/04/01 11:30:48;;;;;;;4.82;3.65;;;10.00;99.90;;;;;;5015265;28;20113;-67
2023/04/01 11:33:24;;;;;;;5.47;4.20;;;10.00;99.90;;;;;;5012483;28;20112;-68
2023/04/01 11:36:07;;;;;;;4.25;3.75;;;10.00;99.90;;;;;;5032240;28;20021;-67
2023/04/01 11:39:12;;;;;;;4.78;3.38;;;10.00;99.90;;;;;;5018361;28;20528;-66
2023/04/01 11:41:48;;;;;;;4.72;3.33;;;10.00;99.90;;;;;;5018408;28;20030;-65
2023/04/01 11:44:28;;;;;;;4.05;3.25;;;10.00;99.90;;;;;;5024629;28;20037;-67
2023/04/01 11:47:12;;;;;;;5.93;3.25;;;10.00;99.90;;;;;;5019096;28;20512;-67
2023/04/01 11:49:59;;;;;;;4.88;3.53;;;10.00;99.90;;;;;;5020213;28;20063;-67
2023/04/01 11:52:43;;;;;;;4.72;3.63;;;10.00;99.90;;;;;;5013728;28;20026;-67
2023/04/01 11:55:40;;;;;;;4.72;3.40;;;9.90;99.90;;;;;;5022091;28;20489;-67
2023/04/01 11:58:09;;;;;;;5.43;3.50;;;10.00;99.90;;;;;;5019906;28;20034;-67
2023/04/01 12:01:19;;;;;;;4.80;3.63;;;10.00;99.90;;;;;;5022751;28;20045;-68
2023/04/01 12:04:06;;;;;;;6.03;3.85;;;9.90;99.90;;;;;;5019343;28;20319;-69
2023/04/01 12:06:47;;;;;;;5.95;3.65;;;9.80;99.90;;;;;;5023688;28;20033;-68
2023/04/01 12:09:23;;;;;;;5.50;3.83;;;9.80;99.90;;;;;;5030737;28;20047;-69
2023/04/01 12:12:12;;;;;;;5.20;3.90;;;9.80;99.90;;;;;;5017866;28;20294;-69
2023/04/01 12:14:52;;;;;;;6.75;4.05;;;9.80;99.90;;;;;;5037267;28;20375;-68
2023/04/01 12:17:29;;;;;;;4.85;4.05;;;9.80;99.90;;;;;;5021264;28;20105;-68
2023/04/01 12:20:02;;;;;;;5.32;4.18;;;9.70;99.90;;;;;;5016402;28;20125;-68
2023/04/01 12:22:36;;;;;;;5.53;4.45;;;9.70;99.90;;;;;;5028328;28;20026;-68
2023/04/01 12:25:05;;;;;;;6.75;5.28;;;9.70;99.90;;;;;;5032483;28;20401;-68
2023/04/01 12:28:08;;;;;;;7.38;5.47;;;9.60;99.90;;;;;;5017622;28;20616;-69
2023/04/01 12:30:44;;;;;;;8.02;5.18;;;9.70;99.90;;;;;;5023882;28;20100;-67
2023/04/01 12:33:35;;;;;;;6.32;4.50;;;9.70;99.90;;;;;;5025558;28;20033;-68
2023/04/01 12:36:15;;;;;;;7.13;5.20;;;9.60;99.90;;;;;;5023005;28;20430;-68
2023/04/01 12:39:18;;;;;;;8.43;5.07;;;9.60;99.90;;;;;;5018157;28;20033;-67
2023/04/01 12:42:23;;;;;;;7.75;5.35;;;9.60;99.90;;;;;;5024333;28;20489;-68
2023/04/01 12:45:11;;;;;;;8.02;5.55;;;9.50;99.90;;;;;;5022070;28;20049;-68
2023/04/01 12:47:39;;;;;;;7.90;5.75;;;9.50;99.90;;;;;;5026429;28;20108;-67
2023/04/01 12:50:26;;;;;;;7.97;5.97;;;9.50;99.90;;;;;;5024553;28;20037;-67
2023/04/01 12:53:17;;;;;;;8.88;6.80;;;9.50;99.90;;;;;;5018165;28;20350;-68
2023/04/01 12:55:45;;;;;;;6.90;5.90;;;9.40;99.90;;;;;;5021376;28;20068;-68
2023/04/01 12:58:57;;;;;;;8.30;5.85;;;9.50;99.90;;;;;;5025884;28;20034;-68
2023/04/01 13:01:57;;;;;;;5.70;4.68;;;9.50;99.90;;;;;;5019688;28;20140;-68
2023/04/01 13:05:02;;;;;;;6.72;5.68;;;9.50;99.90;;;;;;5029387;28;20124;-68
2023/04/01 13:07:46;;;;;;;7.95;6.00;;;9.50;99.90;;;;;;5022276;28;20667;-69
2023/04/01 13:10:21;;;;;;;7.15;5.30;;;9.50;99.90;;;;;;5018150;28;20447;-69
2023/04/01 13:13:06;;;;;;;7.43;6.15;;;9.40;99.90;;;;;;5017023;28;20018;-64
2023/04/01 13:16:04;;;;;;;;;;;9.30;99.90;;;;;;5016586;28;20036;-67
2023/04/01 13:19:06;;;;;;;9.40;7.13;;;9.30;99.90;;;;;;5039580;28;19956;-67
2023/04/01 13:22:02;;;;;;;9.20;7.25;;;9.20;99.90;;;;;;5031328;28;20499;-67
2023/04/01 13:24:34;;;;;;;11.07;7.10;;;9.20;99.90;;;;;;5020640;28;20412;-67
2023/04/01 13:27:24;;;;;;;8.00;7.05;;;9.20;99.90;;;;;;5028617;28;20043;-67
2023/04/01 13:30:04;;;;;;;8.43;6.57;;;9.10;99.90;;;;;;5016185;28;20108;-67
2023/04/01 13:33:00;;;;;;;9.05;7.50;;;9.20;99.90;;;;;;5022231;28;20088;-67
2023/04/01 13:35:43;;;;;;;;;;;9.20;99.90;;;;;;5019613;28;20076;-68
2023/04/01 13:38:14;;;;;;;8.45;7.30;;;9.20;99.90;;;;;;5033549;28;20079;-68
2023/04/01 13:40:59;;;;;;;8.13;6.35;;;9.20;99.90;;;;;;5024300;28;20504;-68
2023/04/01 13:43:56;;;;;;;8.93;5.82;;;9.20;99.90;;;;;;5031500;28;20107;-68